Time;durP1;ratioP1;P1;durP2;ratioP2;P2;SDS_P1;SDS_P2;PMS_P1;PMS_P2;Temp;Humidity;BMP_temperature;BMP_pressure;BME280_temperature;BME280_humidity;BME280_pressure;Samples;Min_cycle;Max_cycle;Signal;HPM_P1;HPM_P2
2023/05/07 00:02:01;;;;;;;5.37;3.22;;;;;;;17.72;60.75;99145.94;4287942;33;34824;-86
2023/05/07 00:04:35;;;;;;;4.20;2.62;;;;;;;17.89;60.13;99148.31;4299983;33;34212;-88
2023/05/07 00:07:03;;;;;;;5.05;2.70;;;;;;;17.72;60.33;99145.94;4285177;33;33791;-87
2023/05/07 00:09:30;;;;;;;5.22;2.50;;;;;;;17.69;60.46;99151.22;4298173;33;33063;-86
2023/05/07 00:11:58;;;;;;;6.70;3.20;;;;;;;17.75;60.22;99151.16;4300854;33;33916;-87
2023/05/07 00:14:25;;;;;;;4.93;2.87;;;;;;;17.81;60.13;99156.31;4287704;33;34815;-88
2023/05/07 00:16:53;;;;;;;7.20;3.25;;;;;;;17.86;59.79;99149.22;4301092;33;33742;-86
2023/05/07 00:19:21;;;;;;;4.93;2.90;;;;;;;17.64;60.14;99156.53;4298996;33;33681;-88
2023/05/07 00:21:48;;;;;;;4.90;2.92;;;;;;;17.71;60.15;99152.06;4285216;33;33934;-88
2023/05/07 00:24:16;;;;;;;5.87;3.33;;;;;;;17.65;60.34;99149.53;4288418;33;33787;-85
2023/05/07 00:26:43;;;;;;;6.37;3.53;;;;;;;17.52;60.93;99157.59;4301285;33;34457;-87
2023/05/07 00:29:11;;;;;;;6.15;3.45;;;;;;;17.57;60.97;99154.03;4294231;33;34396;-87
2023/05/07 00:31:39;;;;;;;6.87;4.00;;;;;;;17.63;60.74;99154.81;4300496;33;33603;-88
2023/05/07 00:34:06;;;;;;;5.22;3.58;;;;;;;17.13;62.06;99155.59;4300403;33;35075;-87
2023/05/07 00:36:34;;;;;;;6.32;4.10;;;;;;;17.41;61.32;99153.41;4298140;33;34052;-86
2023/05/07 00:39:03;;;;;;;5.80;3.87;;;;;;;17.54;61.39;99156.72;4292347;33;33529;-88
2023/05/07 00:41:30;;;;;;;9.63;4.40;;;;;;;17.35;61.64;99159.62;4299882;33;34595;-87
2023/05/07 00:43:58;;;;;;;7.55;4.43;;;;;;;17.52;61.03;99157.59;4299153;33;34064;-88
2023/05/07 00:46:26;;;;;;;6.55;4.50;;;;;;;17.43;60.87;99163.00;4287948;33;34313;-88
2023/05/07 00:48:54;;;;;;;9.15;5.22;;;;;;;17.32;61.35;99162.28;4283783;33;33301;-88
2023/05/07 00:51:21;;;;;;;7.93;5.53;;;;;;;17.41;61.22;99154.28;4305776;33;33996;-86
2023/05/07 00:53:49;;;;;;;8.32;6.00;;;;;;;17.45;61.22;99158.59;4304770;33;33862;-89
2023/05/07 00:56:17;;;;;;;9.05;6.18;;;;;;;17.54;60.98;99159.34;4304602;33;33626;-87
2023/05/07 00:58:44;;;;;;;8.68;5.82;;;;;;;17.30;61.61;99156.19;4304315;33;33002;-88
2023/05/07 01:01:12;;;;;;;8.93;5.90;;;;;;;17.27;62.24;99161.47;4291818;33;33502;-88
2023/05/07 01:03:40;;;;;;;8.02;5.65;;;;;;;17.27;62.29;99153.63;4298148;33;34010;-88
2023/05/07 01:06:09;;;;;;;7.32;5.50;;;;;;;17.23;62.65;99162.41;4305525;33;34549;-88
2023/05/07 01:08:39;;;;;;;9.00;5.62;;;;;;;17.35;62.47;99167.50;4304698;33;34233;-87
2023/05/07 01:11:07;;;;;;;9.05;5.70;;;;;;;17.25;62.54;99164.13;4279972;33;33595;-87
2023/05/07 01:13:35;;;;;;;7.25;5.47;;;;;;;17.21;62.54;99161.59;4304943;33;34137;-87
2023/05/07 01:16:04;;;;;;;9.45;6.20;;;;;;;17.35;62.38;99157.03;4304944;33;34676;-87
2023/05/07 01:18:31;;;;;;;9.68;6.30;;;;;;;17.10;63.15;99150.38;4304654;33;32968;-88
2023/05/07 01:21:01;;;;;;;8.68;6.45;;;;;;;17.22;63.18;99158.06;4290712;33;34571;-87
2023/05/07 01:23:30;;;;;;;9.30;6.82;;;;;;;17.45;62.63;99160.34;4287360;33;34077;-89
2023/05/07 01:25:57;;;;;;;8.35;6.50;;;;;;;17.31;62.88;99157.91;4291223;33;33898;-89
2023/05/07 01:28:25;;;;;;;9.07;7.12;;;;;;;17.48;62.50;99169.03;4304945;33;33578;-88
2023/05/07 01:30:57;;;;;;;11.63;8.63;;;;;;;17.34;62.82;99165.75;4304675;33;33599;-86
2023/05/07 01:33:25;;;;;;;12.43;9.07;;;;;;;17.32;62.93;99164.91;4290353;33;34182;-87
2023/05/07 01:35:53;;;;;;;10.55;8.68;;;;;;;17.34;62.79;99173.59;4296218;33;33730;-89
2023/05/07 01:38:22;;;;;;;11.57;9.20;;;;;;;17.51;62.49;99171.63;4304537;33;33779;-87
2023/05/07 01:40:50;;;;;;;12.75;8.32;;;;;;;17.24;63.06;99167.66;4291284;33;33843;-86
2023/05/07 01:43:17;;;;;;;12.20;9.32;;;;;;;17.26;63.02;99165.84;4290393;33;34171;-88
2023/05/07 01:45:48;;;;;;;13.85;10.80;;;;;;;17.17;63.03;99171.25;4304503;33;33673;-89
2023/05/07 01:48:16;;;;;;;15.95;12.50;;;;;;;17.19;62.90;99168.59;4291381;33;34505;-86
2023/05/07 01:50:44;;;;;;;14.85;11.12;;;;;;;17.25;62.58;99171.13;4303012;33;33823;-87
2023/05/07 01:53:11;;;;;;;13.65;10.73;;;;;;;17.23;62.64;99168.50;4290428;33;34886;-88
2023/05/07 01:55:39;;;;;;;14.87;12.37;;;;;;;17.24;62.33;99169.41;4303524;33;34743;-87
2023/05/07 01:58:07;;;;;;;15.98;12.80;;;;;;;17.14;62.58;99167.78;4302829;33;33526;-86
2023/05/07 02:00:36;;;;;;;16.05;12.05;;;;;;;17.05;62.92;99158.31;4299229;33;33696;-87
2023/05/07 02:03:04;;;;;;;17.45;12.77;;;;;;;17.13;62.78;99163.44;4300597;33;34263;-87
2023/05/07 02:05:33;;;;;;;15.18;12.50;;;;;;;17.21;62.58;99145.88;4302295;33;33726;-87
2023/05/07 02:08:01;;;;;;;16.55;13.02;;;;;;;17.10;62.78;99147.78;4301474;33;32004;-88
2023/05/07 02:10:29;;;;;;;15.35;11.95;;;;;;;17.26;62.43;99149.28;4301628;33;33603;-87
2023/05/07 02:12:57;;;;;;;16.00;12.37;;;;;;;17.17;62.88;99146.81;4288826;33;34246;-87
2023/05/07 02:15:24;;;;;;;15.43;12.25;;;;;;;17.10;63.17;99150.38;4301842;33;34666;-88
2023/05/07 02:18:03;;;;;;;19.02;13.38;;;;;;;17.02;63.41;99148.75;4302005;33;34666;-85
2023/05/07 02:20:31;;;;;;;21.17;13.93;;;;;;;17.06;63.46;99151.31;4302606;33;34933;-87
2023/05/07 02:22:59;;;;;;;14.38;11.82;;;;;;;16.94;63.40;99150.59;4301784;33;35353;-87
2023/05/07 02:25:27;;;;;;;16.67;12.60;;;;;;;16.90;62.99;99148.91;4289260;33;35003;-88
2023/05/07 02:27:55;;;;;;;15.02;12.68;;;;;;;16.81;63.48;99154.25;4301957;33;34303;-87
2023/05/07 02:30:23;;;;;;;15.98;12.27;;;;;;;16.82;63.43;99142.91;4288320;33;33846;-89
2023/05/07 02:32:51;;;;;;;13.98;11.00;;;;;;;16.88;63.36;99147.19;4301998;33;34100;-86
2023/05/07 02:35:19;;;;;;;14.32;11.27;;;;;;;16.64;63.94;99143.09;4302114;33;34736;-88
2023/05/07 02:37:46;;;;;;;15.40;11.77;;;;;;;16.81;63.00;99145.53;4302499;33;33550;-88
2023/05/07 02:40:14;;;;;;;14.25;11.15;;;;;;;16.76;62.58;99143.84;4301542;33;33994;-89
2023/05/07 02:42:42;;;;;;;13.68;10.82;;;;;;;16.76;62.35;99143.84;4298829;33;34272;-88
2023/05/07 02:45:10;;;;;;;15.90;11.02;;;;;;;16.82;61.99;99131.53;4286752;33;31228;-89
2023/05/07 02:47:38;;;;;;;13.80;11.15;;;;;;;16.85;61.69;99131.50;4301177;33;34527;-88
2023/05/07 02:50:07;;;;;;;13.48;10.88;;;;;;;16.68;61.97;99135.19;4302131;33;34004;-88
2023/05/07 02:52:36;;;;;;;13.40;10.07;;;;;;;16.69;62.03;99130.81;4301263;33;33784;-87
2023/05/07 02:55:04;;;;;;;14.00;10.52;;;;;;;16.49;62.97;99133.69;4301410;33;34569;-87
2023/05/07 02:57:32;;;;;;;13.35;10.45;;;;;;;16.62;62.70;99144.84;4301567;33;34468;-87
2023/05/07 02:59:59;;;;;;;13.15;10.10;;;;;;;16.56;62.62;99147.56;4300500;33;34749;-88
2023/05/07 03:02:31;;;;;;;13.95;9.77;;;;;;;16.50;63.17;99144.12;4299409;33;33963;-87
2023/05/07 03:04:59;;;;;;;13.35;10.32;;;;;;;16.30;64.03;99139.13;4301026;33;33916;-88
2023/05/07 03:07:26;;;;;;;13.02;10.25;;;;;;;16.44;63.56;99140.69;4301143;33;33235;-88
2023/05/07 03:09:54;;;;;;;14.32;10.32;;;;;;;16.43;63.62;99137.22;4291903;33;33840;-88
2023/05/07 03:12:21;;;;;;;15.00;10.77;;;;;;;16.21;64.64;99143.56;4299447;33;33960;-88
2023/05/07 03:14:49;;;;;;;13.65;11.38;;;;;;;16.37;64.09;99139.91;4288906;33;34745;-87
2023/05/07 03:17:17;;;;;;;13.80;10.68;;;;;;;16.40;64.10;99139.00;4288942;33;33542;-89
2023/05/07 03:19:45;;;;;;;14.05;11.43;;;;;;;16.38;64.14;99144.25;4301889;33;33596;-87
2023/05/07 03:22:12;;;;;;;14.45;10.93;;;;;;;16.36;64.12;99137.31;4288638;33;33624;-88
2023/05/07 03:24:40;;;;;;;14.30;11.57;;;;;;;16.19;64.78;99140.13;4288961;33;33797;-89
2023/05/07 03:27:07;;;;;;;12.80;10.50;;;;;;;16.27;64.63;99138.28;4301106;33;33395;-88
2023/05/07 03:29:35;;;;;;;15.65;9.70;;;;;;;16.15;64.84;99135.81;4302194;33;34551;-89
2023/05/07 03:32:03;;;;;;;11.88;9.73;;;;;;;16.17;64.77;99147.09;4287455;33;34199;-88
2023/05/07 03:34:31;;;;;;;13.32;9.40;;;;;;;16.15;64.48;99143.66;4297822;33;32153;-87
2023/05/07 03:36:58;;;;;;;12.98;10.35;;;;;;;16.25;64.13;99140.94;4301127;33;34129;-88
2023/05/07 03:39:28;;;;;;;15.13;11.15;;;;;;;16.19;64.03;99140.97;4296382;33;34660;-87
2023/05/07 03:41:58;;;;;;;14.85;11.50;;;;;;;16.09;64.37;99144.56;4294473;33;34044;-87
2023/05/07 03:44:28;;;;;;;13.70;9.95;;;;;;;16.23;63.81;99152.28;4286297;33;33671;-86
2023/05/07 03:46:59;;;;;;;15.38;10.68;;;;;;;16.04;64.38;99146.38;4286217;33;33355;-87
2023/05/07 03:49:27;;;;;;;13.65;10.77;;;;;;;16.14;64.33;99157.59;4287922;33;34726;-87
2023/05/07 03:51:54;;;;;;;12.95;10.35;;;;;;;16.09;64.49;99160.25;4301548;33;33844;-87
2023/05/07 03:54:22;;;;;;;14.13;11.12;;;;;;;16.17;64.26;99157.56;4301542;33;34998;-88
2023/05/07 03:56:49;;;;;;;13.98;10.38;;;;;;;16.26;63.73;99154.87;4291376;33;33257;-87
2023/05/07 03:59:17;;;;;;;12.25;9.52;;;;;;;16.24;63.67;99161.84;4290926;33;35206;-88
2023/05/07 04:01:45;;;;;;;13.27;9.70;;;;;;;16.05;64.56;99159.41;4301529;33;33431;-88
2023/05/07 04:04:15;;;;;;;13.50;10.52;;;;;;;16.00;65.52;99163.81;4301887;33;34621;-87
2023/05/07 04:06:43;;;;;;;15.38;11.30;;;;;;;15.91;66.33;99157.81;4288396;33;33733;-88
2023/05/07 04:09:11;;;;;;;14.65;12.02;;;;;;;16.18;65.59;99160.19;4288313;33;34020;-88
2023/05/07 04:11:40;;;;;;;12.40;10.68;;;;;;;16.15;65.85;99154.09;4291232;33;34051;-88
2023/05/07 04:14:08;;;;;;;15.18;11.57;;;;;;;16.26;65.62;99157.47;4287332;33;33743;-87
2023/05/07 04:16:35;;;;;;;13.82;10.35;;;;;;;16.36;65.19;99159.09;4287335;33;34068;-89
2023/05/07 04:19:04;;;;;;;13.65;10.35;;;;;;;16.47;64.88;99166.84;4287609;33;33780;-87
2023/05/07 04:21:32;;;;;;;13.43;10.45;;;;;;;16.68;64.27;99160.50;4286999;33;35074;-87
2023/05/07 04:23:59;;;;;;;13.35;10.60;;;;;;;16.63;63.86;99168.41;4289669;33;33929;-88
2023/05/07 04:26:28;;;;;;;13.48;10.07;;;;;;;16.66;64.34;99163.13;4287232;33;31842;-88
2023/05/07 04:28:56;;;;;;;11.68;8.65;;;;;;;16.85;64.87;99169.03;4301321;33;33870;-89
2023/05/07 04:31:24;;;;;;;10.57;8.73;;;;;;;17.05;64.98;99174.03;4288475;33;35140;-88
2023/05/07 04:33:52;;;;;;;12.10;8.40;;;;;;;17.43;64.06;99181.34;4301263;33;34380;-88
2023/05/07 04:36:20;;;;;;;11.18;7.85;;;;;;;18.04;63.61;99173.44;4301145;33;34295;-88
2023/05/07 04:38:48;;;;;;;9.68;7.20;;;;;;;18.53;61.74;99177.78;4300334;33;33713;-87
2023/05/07 04:41:16;;;;;;;9.85;7.25;;;;;;;18.67;60.21;99186.22;4297555;33;33622;-87
2023/05/07 04:43:44;;;;;;;10.95;6.60;;;;;;;18.91;59.47;99185.78;4286892;33;34546;-88
2023/05/07 04:46:12;;;;;;;9.75;6.95;;;;;;;19.49;58.23;99173.13;4285710;33;33586;-88
2023/05/07 04:48:41;;;;;;;10.70;5.53;;;;;;;19.62;57.23;99173.72;4288456;33;33647;-88
2023/05/07 04:51:08;;;;;;;9.55;6.35;;;;;;;19.85;57.81;99174.03;4301241;33;33685;-87
2023/05/07 04:53:37;;;;;;;29.12;5.78;;;;;;;20.06;58.03;99171.75;4301029;33;34327;-88
2023/05/07 04:56:05;;;;;;;9.13;4.90;;;;;;;20.44;57.11;99172.50;4300367;33;33568;-87
2023/05/07 04:58:33;;;;;;;7.75;5.03;;;;;;;20.51;56.59;99169.72;4300931;33;33967;-88
2023/05/07 05:01:01;;;;;;;8.98;5.05;;;;;;;20.58;56.17;99173.03;4292921;33;35037;-88
2023/05/07 05:03:29;;;;;;;9.25;4.40;;;;;;;20.14;57.36;99169.78;4296648;33;34296;-89
2023/05/07 05:05:59;;;;;;;6.47;4.05;;;;;;;20.20;57.35;99174.91;4289329;33;33491;-87
2023/05/07 05:08:27;;;;;;;6.90;4.62;;;;;;;20.03;57.52;99182.34;4286517;33;34757;-88
2023/05/07 05:10:57;;;;;;;7.57;5.07;;;;;;;19.89;58.29;99180.94;4285207;33;34194;-88
2023/05/07 05:13:25;;;;;;;8.70;4.62;;;;;;;20.16;57.67;99179.38;4286292;33;33997;-88
2023/05/07 05:15:53;;;;;;;7.10;4.78;;;;;;;19.91;57.94;99178.28;4286681;33;33540;-89
2023/05/07 05:18:21;;;;;;;7.12;4.80;;;;;;;19.75;57.29;99176.94;4286607;33;34653;-87
2023/05/07 05:20:48;;;;;;;8.70;5.93;;;;;;;20.00;56.95;99187.69;4286166;33;33687;-88
2023/05/07 05:23:16;;;;;;;9.27;6.47;;;;;;;19.85;56.46;99181.03;4286441;33;33808;-89
2023/05/07 05:25:44;;;;;;;9.93;5.85;;;;;;;19.87;56.39;99182.75;4300073;33;33325;-89
2023/05/07 05:28:12;;;;;;;10.05;6.35;;;;;;;20.20;55.93;99185.44;4300681;33;34513;-89
2023/05/07 05:30:40;;;;;;;8.63;6.05;;;;;;;19.48;56.81;99189.81;4288151;33;35570;-87
2023/05/07 05:33:08;;;;;;;9.10;5.82;;;;;;;19.52;56.97;99180.06;4286463;33;33709;-89
2023/05/07 05:35:35;;;;;;;12.25;6.37;;;;;;;19.59;57.29;99174.62;4294093;33;33206;-87
2023/05/07 05:38:03;;;;;;;9.77;6.50;;;;;;;19.74;56.69;99173.44;4301974;33;34916;-89
2023/05/07 05:40:33;;;;;;;9.00;6.18;;;;;;;19.61;57.88;99174.59;4289853;33;33916;-88
2023/05/07 05:43:01;;;;;;;10.07;6.30;;;;;;;19.86;57.51;99169.63;4302678;33;34191;-87
2023/05/07 05:45:29;;;;;;;10.05;6.75;;;;;;;19.74;57.38;99168.19;4302448;33;33092;-89
2023/05/07 05:47:57;;;;;;;10.02;6.57;;;;;;;19.31;58.26;99163.88;4302480;33;33614;-89
2023/05/07 05:50:26;;;;;;;12.65;6.72;;;;;;;19.77;57.96;99162.81;4302183;33;33875;-89
2023/05/07 05:52:54;;;;;;;10.70;7.70;;;;;;;20.15;56.73;99163.59;4299578;33;34579;-89
2023/05/07 05:55:22;;;;;;;9.65;6.80;;;;;;;19.86;57.77;99165.25;4301647;33;33527;-87
2023/05/07 05:57:50;;;;;;;8.20;6.57;;;;;;;19.74;58.49;99165.56;4302090;33;33573;-88
2023/05/07 06:00:18;;;;;;;9.77;6.53;;;;;;;19.65;58.29;99171.00;4289216;33;33760;-87
2023/05/07 06:02:45;;;;;;;8.43;5.47;;;;;;;20.37;57.03;99171.81;4288976;33;33843;-86
2023/05/07 06:05:14;;;;;;;8.52;6.07;;;;;;;19.87;56.77;99177.47;4301994;33;34157;-87
2023/05/07 06:07:42;;;;;;;8.70;5.60;;;;;;;19.42;58.20;99182.03;4302479;33;33740;-87
2023/05/07 06:10:10;;;;;;;11.95;5.55;;;;;;;19.92;57.59;99175.59;4302453;33;35175;-87
2023/05/07 06:12:40;;;;;;;7.70;5.30;;;;;;;20.40;55.98;99171.72;4302589;33;33562;-87
2023/05/07 06:15:07;;;;;;;6.35;4.40;;;;;;;20.40;55.77;99172.59;4300976;33;34133;-87
2023/05/07 06:17:35;;;;;;;6.97;4.10;;;;;;;20.68;53.48;99171.00;4302471;33;34919;-87
2023/05/07 06:20:03;;;;;;;6.85;4.43;;;;;;;21.02;53.36;99170.87;4300940;33;34991;-88
2023/05/07 06:22:30;;;;;;;5.20;3.60;;;;;;;21.18;53.98;99176.59;4302128;33;33747;-88
2023/05/07 06:24:58;;;;;;;5.95;3.15;;;;;;;21.25;51.51;99181.62;4302372;33;34262;-88
2023/05/07 06:27:27;;;;;;;6.07;2.37;;;;;;;21.00;52.28;99175.34;4302286;33;33522;-87
2023/05/07 06:29:56;;;;;;;4.60;2.58;;;;;;;20.48;53.01;99169.75;4276934;33;33610;-87
2023/05/07 06:32:23;;;;;;;5.00;2.53;;;;;;;20.97;52.25;99175.44;4287637;33;34053;-87
2023/05/07 06:34:51;;;;;;;5.10;3.03;;;;;;;21.01;52.08;99177.94;4287686;33;33783;-88
2023/05/07 06:37:19;;;;;;;5.78;3.22;;;;;;;20.98;52.09;99180.66;4288314;33;33158;-88
2023/05/07 06:39:47;;;;;;;7.80;3.17;;;;;;;21.48;51.76;99185.34;4302221;33;34280;-88
2023/05/07 06:42:15;;;;;;;6.25;3.60;;;;;;;21.66;52.89;99184.75;4288590;33;33336;-88
2023/05/07 06:44:43;;;;;;;5.50;3.03;;;;;;;21.30;51.61;99184.13;4300065;33;33357;-89
2023/05/07 06:47:10;;;;;;;7.45;3.30;;;;;;;21.55;50.86;99185.09;4287859;33;33861;-88
2023/05/07 06:49:44;;;;;;;4.55;2.60;;;;;;;21.36;52.25;99184.81;4297757;33;34108;-88
2023/05/07 06:52:13;;;;;;;6.50;3.08;;;;;;;21.56;51.84;99185.97;4302110;33;31986;-89
2023/05/07 06:54:40;;;;;;;6.22;3.17;;;;;;;21.49;51.60;99192.34;4300888;33;33511;-88
2023/05/07 06:57:08;;;;;;;5.35;3.50;;;;;;;21.18;51.18;99189.78;4297947;33;33939;-88
2023/05/07 06:59:36;;;;;;;5.53;3.22;;;;;;;21.21;51.25;99187.88;4293346;33;33593;-85
2023/05/07 07:02:04;;;;;;;4.43;2.65;;;;;;;21.10;51.41;99184.69;4287723;33;33827;-86
2023/05/07 07:04:32;;;;;;;5.55;3.20;;;;;;;21.12;51.18;99191.66;4287615;33;34224;-86
2023/05/07 07:06:59;;;;;;;5.55;3.00;;;;;;;21.26;51.20;99193.87;4286332;33;33882;-85
2023/05/07 07:09:28;;;;;;;4.93;2.67;;;;;;;21.51;50.88;99203.69;4288384;33;34741;-89
2023/05/07 07:11:56;;;;;;;5.03;2.80;;;;;;;21.52;49.90;99208.09;4287579;33;34847;-86
2023/05/07 07:14:24;;;;;;;5.55;2.85;;;;;;;21.42;52.31;99212.78;4294540;33;34327;-85
2023/05/07 07:16:51;;;;;;;4.80;2.97;;;;;;;21.62;51.29;99214.78;4287476;33;34977;-85
2023/05/07 07:19:21;;;;;;;4.20;2.25;;;;;;;21.79;50.92;99212.50;4287300;33;34015;-87
2023/05/07 07:21:49;;;;;;;7.95;4.05;;;;;;;21.96;49.00;99209.28;4287016;33;34235;-85
2023/05/07 07:24:20;;;;;;;10.90;5.07;;;;;;;21.61;52.97;99219.22;4299799;33;34080;-85
2023/05/07 07:26:48;;;;;;;8.27;6.20;;;;;;;21.67;53.87;99228.72;4301703;33;34120;-87
2023/05/07 07:29:16;;;;;;;11.07;5.60;;;;;;;21.58;53.68;99223.72;4300640;33;34254;-86
2023/05/07 07:31:43;;;;;;;8.77;6.05;;;;;;;21.60;53.25;99224.53;4301837;33;33840;-86
2023/05/07 07:34:12;;;;;;;10.02;5.82;;;;;;;21.36;54.03;99228.78;4301677;33;33023;-87
2023/05/07 07:36:39;;;;;;;9.13;6.35;;;;;;;21.49;54.20;99237.19;4288739;33;33741;-87
2023/05/07 07:39:14;;;;;;;7.87;5.37;;;;;;;21.55;53.99;99237.00;4296887;33;34076;-86
2023/05/07 07:41:41;;;;;;;10.75;7.45;;;;;;;21.56;53.51;99238.75;4298867;33;33734;-87
2023/05/07 07:44:12;;;;;;;13.40;8.02;;;;;;;21.17;55.45;99248.66;4301434;33;33336;-86
2023/05/07 07:46:44;;;;;;;12.00;8.07;;;;;;;20.74;56.88;99240.19;4300275;33;34051;-87
2023/05/07 07:49:11;;;;;;;11.43;7.72;;;;;;;20.47;57.14;99240.91;4300476;33;34126;-86
2023/05/07 07:51:39;;;;;;;9.52;6.93;;;;;;;21.08;56.22;99241.88;4301644;33;34095;-88
2023/05/07 07:54:07;;;;;;;11.25;7.32;;;;;;;21.16;54.94;99247.78;4301685;33;33205;-87
2023/05/07 07:56:35;;;;;;;20.95;10.10;;;;;;;21.04;56.75;99234.97;4296798;33;33524;-86
2023/05/07 07:59:02;;;;;;;13.02;8.68;;;;;;;20.64;57.56;99241.34;4287358;33;34868;-86
2023/05/07 08:01:31;;;;;;;14.52;8.95;;;;;;;20.47;58.29;99240.91;4300791;33;34009;-88
2023/05/07 08:03:59;;;;;;;13.73;9.48;;;;;;;20.90;57.05;99248.53;4301116;33;33489;-88
2023/05/07 08:06:27;;;;;;;13.50;10.07;;;;;;;20.91;57.66;99247.66;4300642;33;34610;-86
2023/05/07 08:08:55;;;;;;;13.48;9.52;;;;;;;20.49;59.30;99246.97;4301673;33;33885;-86
2023/05/07 08:11:26;;;;;;;13.93;10.20;;;;;;;20.84;57.97;99240.81;4301575;33;34687;-86
2023/05/07 08:13:54;;;;;;;15.27;10.63;;;;;;;20.69;58.30;99243.88;4288347;33;34026;-88
2023/05/07 08:16:22;;;;;;;15.10;9.40;;;;;;;19.96;60.91;99243.94;4299965;33;33731;-86
2023/05/07 08:18:52;;;;;;;14.18;10.30;;;;;;;19.80;61.44;99249.56;4301445;33;34245;-85
2023/05/07 08:21:20;;;;;;;12.93;9.27;;;;;;;20.47;59.94;99241.78;4301269;33;33947;-85
2023/05/07 08:23:47;;;;;;;20.75;10.10;;;;;;;20.82;58.89;99227.66;4301168;33;34313;-85
2023/05/07 08:26:15;;;;;;;12.05;8.55;;;;;;;20.69;58.65;99234.19;4301587;33;33854;-85
2023/05/07 08:28:42;;;;;;;13.20;9.40;;;;;;;20.36;59.36;99228.88;4301326;33;33799;-87
2023/05/07 08:31:10;;;;;;;13.13;9.00;;;;;;;20.60;57.80;99234.44;4293158;33;34005;-84
2023/05/07 08:33:38;;;;;;;12.13;9.35;;;;;;;20.67;57.80;99243.91;4301020;33;33532;-86
2023/05/07 08:36:06;;;;;;;11.85;8.25;;;;;;;20.39;58.54;99239.34;4301374;33;33465;-86
2023/05/07 08:38:33;;;;;;;12.63;9.63;;;;;;;20.07;60.60;99248.03;4301423;33;33606;-85
2023/05/07 08:41:01;;;;;;;13.00;8.25;;;;;;;20.24;60.08;99249.41;4301463;33;34756;-86
2023/05/07 08:43:31;;;;;;;13.10;9.45;;;;;;;20.42;59.50;99244.53;4301258;33;33661;-88
2023/05/07 08:46:02;;;;;;;12.02;8.77;;;;;;;19.90;61.27;99255.50;4287986;33;34004;-86
2023/05/07 08:48:30;;;;;;;11.82;9.18;;;;;;;19.96;61.17;99243.94;4287849;33;34254;-85
2023/05/07 08:50:59;;;;;;;28.23;12.52;;;;;;;19.93;61.12;99240.50;4288105;33;33338;-85
2023/05/07 08:53:27;;;;;;;14.63;9.93;;;;;;;19.40;63.76;99257.47;4287826;33;34227;-85
2023/05/07 08:55:54;;;;;;;11.73;8.65;;;;;;;20.07;61.58;99248.03;4288272;33;33840;-85
2023/05/07 08:58:25;;;;;;;12.25;8.88;;;;;;;20.13;61.46;99249.66;4288067;33;32395;-86
2023/05/07 09:00:52;;;;;;;13.82;8.63;;;;;;;20.17;60.42;99244.28;4299750;33;33827;-85
2023/05/07 09:03:20;;;;;;;10.85;8.13;;;;;;;20.71;58.89;99240.28;4300983;33;34658;-86
2023/05/07 09:05:49;;;;;;;12.07;8.07;;;;;;;20.69;59.17;99241.25;4300661;33;33530;-85
2023/05/07 09:08:16;;;;;;;12.32;7.65;;;;;;;21.04;59.15;99238.47;4302086;33;33624;-86
2023/05/07 09:10:44;;;;;;;11.90;5.78;;;;;;;21.38;56.37;99238.37;4302904;33;34502;-85
2023/05/07 09:13:14;;;;;;;7.82;5.62;;;;;;;21.68;53.58;99235.72;4301935;33;33871;-85
2023/05/07 09:15:42;;;;;;;9.35;7.03;;;;;;;21.44;55.09;99242.62;4301354;33;33842;-84
2023/05/07 09:18:10;;;;;;;13.85;6.78;;;;;;;21.59;54.05;99235.97;4289381;33;35066;-85
2023/05/07 09:20:39;;;;;;;7.62;5.43;;;;;;;21.15;54.52;99240.81;4301461;33;34672;-86
2023/05/07 09:23:07;;;;;;;13.35;6.53;;;;;;;21.38;54.54;99243.66;4289189;33;32720;-86
2023/05/07 09:25:36;;;;;;;10.75;6.35;;;;;;;21.68;54.26;99248.91;4289336;33;33605;-86
2023/05/07 09:28:07;;;;;;;11.70;6.45;;;;;;;21.16;55.22;99241.66;4289448;33;34837;-86
2023/05/07 09:30:35;;;;;;;11.75;6.07;;;;;;;21.75;52.64;99246.94;4302380;33;34541;-87
2023/05/07 09:33:03;;;;;;;6.50;4.43;;;;;;;21.47;53.37;99245.13;4289534;33;33225;-87
2023/05/07 09:35:32;;;;;;;10.13;4.85;;;;;;;21.60;50.33;99235.09;4302346;33;34090;-86
2023/05/07 09:38:01;;;;;;;8.02;5.25;;;;;;;21.32;51.64;99238.50;4302460;33;35060;-86
2023/05/07 09:40:31;;;;;;;7.82;5.12;;;;;;;21.68;52.19;99235.72;4277688;33;34056;-86
2023/05/07 09:43:12;;;;;;;15.25;5.15;;;;;;;22.13;50.68;99237.78;4288188;33;33260;-86
2023/05/07 09:45:41;;;;;;;9.48;5.25;;;;;;;22.09;50.51;99230.87;4288224;33;34041;-86
2023/05/07 09:48:10;;;;;;;7.18;5.20;;;;;;;21.85;51.60;99245.72;4296328;33;33951;-85
2023/05/07 09:50:47;;;;;;;8.27;4.93;;;;;;;21.58;52.05;99239.53;4275751;33;34345;-86
2023/05/07 09:53:16;;;;;;;6.57;4.53;;;;;;;22.12;51.73;99246.59;4281769;33;33527;-86
2023/05/07 09:55:45;;;;;;;8.70;5.28;;;;;;;21.90;51.40;99243.81;4298605;33;34708;-85
2023/05/07 09:58:23;;;;;;;9.70;7.00;;;;;;;21.55;52.42;99248.41;4301299;33;34904;-86
2023/05/07 10:00:53;;;;;;;8.18;6.12;;;;;;;21.70;51.83;99252.34;4302407;33;34473;-93
2023/05/07 10:03:21;;;;;;;8.02;5.97;;;;;;;21.73;51.73;99248.75;4289061;33;32554;-88
2023/05/07 10:05:50;;;;;;;11.05;7.70;;;;;;;21.60;52.41;99254.41;4288236;33;34365;-89
2023/05/07 10:08:19;;;;;;;9.23;7.12;;;;;;;21.61;53.93;99247.37;4289265;33;34249;-90
2023/05/07 10:10:49;;;;;;;10.90;7.62;;;;;;;21.72;53.25;99255.81;4289440;33;33489;-88
2023/05/07 10:13:21;;;;;;;11.15;7.43;;;;;;;21.14;55.11;99245.22;4289314;33;33143;-90
2023/05/07 10:15:50;;;;;;;10.02;7.50;;;;;;;21.23;55.47;99252.00;4302373;33;34047;-89
2023/05/07 10:18:22;;;;;;;11.12;6.93;;;;;;;21.59;54.43;99251.81;4289110;33;33513;-90
2023/05/07 10:20:51;;;;;;;10.30;7.55;;;;;;;21.64;54.45;99246.41;4290676;33;33865;-90
2023/05/07 10:23:23;;;;;;;9.68;7.35;;;;;;;21.90;53.66;99245.59;4300047;33;34272;-89
2023/05/07 10:25:51;;;;;;;11.98;7.30;;;;;;;21.75;53.72;99246.94;4263244;33;33317;-90
2023/05/07 10:28:27;;;;;;;9.95;7.40;;;;;;;21.81;53.34;99247.59;4288919;33;32810;-92
2023/05/07 10:31:04;;;;;;;11.12;6.50;;;;;;;21.94;52.49;99242.81;4302280;33;34601;-93
2023/05/07 10:33:34;;;;;;;10.52;7.37;;;;;;;21.28;54.88;99251.84;4277680;33;32737;-89
2023/05/07 10:36:04;;;;;;;11.05;6.40;;;;;;;20.97;55.65;99246.59;4288873;33;34736;-89
2023/05/07 10:38:32;;;;;;;8.70;5.75;;;;;;;21.23;54.43;99251.12;4288786;33;34657;-91
2023/05/07 10:41:00;;;;;;;15.20;8.38;;;;;;;21.40;55.32;99254.16;4288486;33;32749;-93
2023/05/07 10:43:43;;;;;;;9.35;5.30;;;;;;;21.64;54.95;99247.28;4283118;33;33168;-92
2023/05/07 10:46:29;;;;;;;9.05;4.93;;;;;;;21.67;50.45;99247.19;4288500;33;33237;-90
2023/05/07 10:49:00;;;;;;;8.82;4.40;;;;;;;21.27;49.77;99237.81;4277041;33;33512;-90
2023/05/07 10:51:31;;;;;;;7.28;4.43;;;;;;;21.44;49.90;99239.97;4289181;33;33815;-95
2023/05/07 10:54:11;;;;;;;7.35;4.32;;;;;;;21.51;48.97;99241.50;4277056;33;32351;-92
2023/05/07 10:56:41;;;;;;;8.85;5.47;;;;;;;21.83;49.47;99232.59;4288936;33;35259;-92
2023/05/07 10:59:30;;;;;;;8.18;6.20;;;;;;;21.73;50.60;99239.06;4265353;33;32497;-90
2023/05/07 11:02:07;;;;;;;8.20;5.62;;;;;;;21.98;50.33;99230.38;4278389;33;34559;-92
2023/05/07 11:04:35;;;;;;;6.85;4.80;;;;;;;22.10;49.89;99228.19;4276670;33;32048;-93
2023/05/07 11:07:11;;;;;;;9.43;5.93;;;;;;;22.82;48.79;99225.72;4288790;33;34773;-93
2023/05/07 11:10:01;;;;;;;9.07;5.55;;;;;;;22.54;49.76;99219.66;4292200;33;33729;-92
2023/05/07 11:12:40;;;;;;;9.27;5.85;;;;;;;22.70;48.72;99223.53;4277473;33;33961;-90
2023/05/07 11:15:09;;;;;;;21.33;12.18;;;;;;;22.43;49.15;99219.22;4274545;33;34202;-90
2023/05/07 11:17:54;;;;;;;7.57;5.28;;;;;;;22.92;50.75;99228.03;4288621;33;35033;-93
2023/05/07 11:20:55;;;;;;;8.65;5.70;;;;;;;22.98;47.02;99227.81;4299392;33;35147;-90
2023/05/07 11:23:33;;;;;;;6.40;4.15;;;;;;;22.18;46.08;99222.69;4286290;33;34251;-92
2023/05/07 11:26:06;;;;;;;7.43;3.92;;;;;;;22.45;47.49;99222.66;4300864;33;33255;-89
2023/05/07 11:28:39;;;;;;;7.05;3.15;;;;;;;22.50;45.75;99228.63;4261461;33;33485;-93
2023/05/07 11:31:07;;;;;;;6.93;3.10;;;;;;;22.69;43.09;99229.72;4298358;33;34616;-90
2023/05/07 11:33:37;;;;;;;6.07;3.30;;;;;;;23.13;43.71;99229.03;4288148;33;34565;-95
2023/05/07 11:36:07;;;;;;;4.82;2.40;;;;;;;23.74;40.17;99216.09;4275788;33;34611;-96